Time;durP1;ratioP1;P1;durP2;ratioP2;P2;SDS_P1;SDS_P2;PMS_P1;PMS_P2;Temp;Humidity;BMP_temperature;BMP_pressure;BME280_temperature;BME280_humidity;BME280_pressure;Samples;Min_cycle;Max_cycle;Signal;HPM_P1;HPM_P2
2023/12/30 00:00:24;;;;;;;2.78;1.27;;;;;;;;;;5058365;28;43361;-77
2023/12/30 00:02:52;;;;;;;2.38;1.10;;;;;;;;;;5056971;28;40846;-79
2023/12/30 00:05:20;;;;;;;4.70;1.60;;;;;;;;;;5056051;28;41578;-79
2023/12/30 00:07:48;;;;;;;4.97;0.98;;;;;;;;;;5064578;28;42496;-77
2023/12/30 00:10:17;;;;;;;2.53;1.02;;;;;;;;;;5055592;28;41380;-76
2023/12/30 00:12:45;;;;;;;4.57;1.60;;;;;;;;;;5058145;28;41106;-78
2023/12/30 00:15:13;;;;;;;3.83;1.45;;;;;;;;;;5062891;28;41637;-75
2023/12/30 00:17:41;;;;;;;3.92;1.27;;;;;;;;;;5063303;28;40784;-78
2023/12/30 00:20:09;;;;;;;4.80;1.50;;;;;;;;;;5054793;28;41064;-79
2023/12/30 00:22:37;;;;;;;5.00;1.33;;;;;;;;;;5067078;28;41974;-78
2023/12/30 00:25:05;;;;;;;3.70;1.30;;;;;;;;;;5064266;28;42163;-80
2023/12/30 00:27:35;;;;;;;2.55;1.13;;;;;;;;;;5042011;28;41562;-78
2023/12/30 00:30:03;;;;;;;3.80;1.40;;;;;;;;;;5057938;28;42068;-76
2023/12/30 00:32:32;;;;;;;2.55;1.00;;;;;;;;;;5042775;28;40706;-75
2023/12/30 00:35:01;;;;;;;3.95;1.58;;;;;;;;;;5039259;28;41596;-75
2023/12/30 00:37:30;;;;;;;1.88;0.90;;;;;;;;;;5065443;28;42011;-75
2023/12/30 00:39:58;;;;;;;1.95;0.80;;;;;;;;;;5064595;28;42750;-75
2023/12/30 00:42:26;;;;;;;3.67;1.20;;;;;;;;;;5037994;28;40268;-75
2023/12/30 00:44:55;;;;;;;2.35;1.02;;;;;;;;;;5064766;28;41513;-75
2023/12/30 00:47:23;;;;;;;2.42;1.00;;;;;;;;;;5060336;28;42121;-75
2023/12/30 00:49:51;;;;;;;2.55;1.00;;;;;;;;;;5055453;28;41124;-75
2023/12/30 00:52:19;;;;;;;3.67;1.58;;;;;;;;;;5062730;28;41508;-75
2023/12/30 00:54:49;;;;;;;2.75;1.17;;;;;;;;;;5066407;28;42984;-75
2023/12/30 00:57:18;;;;;;;3.80;0.90;;;;;;;;;;5032370;28;40831;-75
2023/12/30 00:59:46;;;;;;;2.38;1.27;;;;;;;;;;5040851;28;40298;-74
2023/12/30 01:02:15;;;;;;;2.10;0.80;;;;;;;;;;5066128;28;41961;-75
2023/12/30 01:04:43;;;;;;;1.80;0.73;;;;;;;;;;5068181;28;41018;-75
2023/12/30 01:07:12;;;;;;;3.58;1.27;;;;;;;;;;5049518;28;40685;-75
2023/12/30 01:09:40;;;;;;;3.67;1.27;;;;;;;;;;5049195;28;39835;-74
2023/12/30 01:12:08;;;;;;;2.70;1.17;;;;;;;;;;5050341;28;41174;-75
2023/12/30 01:14:36;;;;;;;2.60;1.02;;;;;;;;;;5047851;28;40866;-75
2023/12/30 01:17:05;;;;;;;3.85;1.40;;;;;;;;;;5048244;28;39991;-75
2023/12/30 01:19:34;;;;;;;3.22;1.08;;;;;;;;;;5056840;28;41171;-75
2023/12/30 01:22:02;;;;;;;4.18;1.13;;;;;;;;;;5060346;28;41969;-75
2023/12/30 01:24:30;;;;;;;3.40;1.05;;;;;;;;;;5065354;28;40838;-75
2023/12/30 01:26:58;;;;;;;1.88;0.75;;;;;;;;;;5062187;28;43025;-75
2023/12/30 01:29:29;;;;;;;2.85;1.20;;;;;;;;;;5064486;28;40770;-75
2023/12/30 01:31:58;;;;;;;2.53;1.15;;;;;;;;;;5064493;28;41828;-75
2023/12/30 01:34:26;;;;;;;1.92;1.10;;;;;;;;;;5050428;28;40803;-75
2023/12/30 01:36:56;;;;;;;2.40;1.10;;;;;;;;;;5046663;28;39619;-75
2023/12/30 01:39:25;;;;;;;1.80;1.02;;;;;;;;;;5068211;28;40407;-75
2023/12/30 01:41:53;;;;;;;2.78;1.10;;;;;;;;;;5072642;28;41964;-75
2023/12/30 01:44:21;;;;;;;2.53;1.00;;;;;;;;;;5067677;28;42151;-75
2023/12/30 01:46:49;;;;;;;2.97;1.15;;;;;;;;;;5067076;28;41462;-75
2023/12/30 01:49:17;;;;;;;2.03;0.85;;;;;;;;;;5067642;28;41411;-75
2023/12/30 01:51:45;;;;;;;3.63;1.20;;;;;;;;;;5065388;28;42041;-75
2023/12/30 01:54:15;;;;;;;4.13;1.17;;;;;;;;;;5056700;28;41471;-75
2023/12/30 01:56:43;;;;;;;1.67;0.85;;;;;;;;;;5057687;28;42345;-75
2023/12/30 01:59:11;;;;;;;3.53;1.17;;;;;;;;;;5039987;28;42875;-75
2023/12/30 02:01:39;;;;;;;1.55;1.00;;;;;;;;;;5048515;28;40681;-75
2023/12/30 02:04:07;;;;;;;2.67;1.02;;;;;;;;;;5065060;28;41142;-75
2023/12/30 02:06:35;;;;;;;2.90;0.77;;;;;;;;;;5062634;28;42035;-75
2023/12/30 02:09:03;;;;;;;2.35;1.02;;;;;;;;;;5045849;28;42000;-75
2023/12/30 02:11:32;;;;;;;3.92;0.98;;;;;;;;;;5044041;28;42380;-75
2023/12/30 02:14:00;;;;;;;1.45;1.00;;;;;;;;;;5033213;28;41055;-75
2023/12/30 02:16:28;;;;;;;4.47;1.10;;;;;;;;;;5046723;28;39829;-75
2023/12/30 02:18:57;;;;;;;2.72;1.02;;;;;;;;;;5037809;28;40389;-75
2023/12/30 02:21:25;;;;;;;4.30;0.98;;;;;;;;;;5039170;28;43724;-75
2023/12/30 02:23:54;;;;;;;2.83;1.00;;;;;;;;;;5041304;28;40034;-75
2023/12/30 02:26:23;;;;;;;1.58;0.93;;;;;;;;;;5037782;28;41734;-75
2023/12/30 02:28:52;;;;;;;5.47;1.10;;;;;;;;;;5046198;28;42208;-75
2023/12/30 02:31:20;;;;;;;2.30;0.73;;;;;;;;;;5037735;28;41123;-75
2023/12/30 02:33:48;;;;;;;2.90;0.88;;;;;;;;;;5036902;28;41808;-75
2023/12/30 02:36:17;;;;;;;2.70;1.02;;;;;;;;;;5040358;28;40005;-75
2023/12/30 02:38:44;;;;;;;5.22;1.40;;;;;;;;;;5053670;28;42649;-75
2023/12/30 02:41:14;;;;;;;6.07;1.45;;;;;;;;;;5060767;28;43072;-75
2023/12/30 02:43:42;;;;;;;2.92;0.80;;;;;;;;;;5051551;28;41563;-75
2023/12/30 02:46:10;;;;;;;1.90;0.73;;;;;;;;;;5047046;28;42632;-75
2023/12/30 02:48:38;;;;;;;4.35;0.98;;;;;;;;;;5044548;28;41269;-75
2023/12/30 02:51:07;;;;;;;2.90;1.15;;;;;;;;;;5039816;28;41938;-75
2023/12/30 02:53:34;;;;;;;1.88;0.85;;;;;;;;;;5035390;28;40169;-75
2023/12/30 02:56:03;;;;;;;4.13;1.30;;;;;;;;;;5040606;28;40807;-75
2023/12/30 02:58:32;;;;;;;3.10;1.00;;;;;;;;;;5045541;28;42357;-75
2023/12/30 03:01:00;;;;;;;4.07;1.27;;;;;;;;;;5045724;28;42847;-75
2023/12/30 03:03:28;;;;;;;3.40;0.98;;;;;;;;;;5044907;28;41032;-75
2023/12/30 03:05:56;;;;;;;2.65;0.80;;;;;;;;;;5056259;28;42425;-75
2023/12/30 03:08:24;;;;;;;3.58;1.48;;;;;;;;;;5042810;28;41095;-75
2023/12/30 03:10:52;;;;;;;2.33;0.93;;;;;;;;;;5065429;28;42306;-75
2023/12/30 03:13:20;;;;;;;3.88;0.85;;;;;;;;;;5033689;28;41000;-75
2023/12/30 03:15:49;;;;;;;4.70;1.17;;;;;;;;;;5049640;28;41233;-75
2023/12/30 03:18:18;;;;;;;2.22;0.98;;;;;;;;;;5042196;28;39447;-75
2023/12/30 03:20:47;;;;;;;2.63;1.35;;;;;;;;;;5047090;28;41973;-75
2023/12/30 03:23:15;;;;;;;3.53;0.82;;;;;;;;;;5077489;28;41302;-75
2023/12/30 03:25:43;;;;;;;7.07;1.33;;;;;;;;;;5058026;28;41502;-75
2023/12/30 03:28:10;;;;;;;3.83;1.33;;;;;;;;;;5065225;28;42011;-75
2023/12/30 03:30:38;;;;;;;5.70;1.13;;;;;;;;;;5047247;28;40282;-75
2023/12/30 03:33:08;;;;;;;3.97;1.27;;;;;;;;;;5062440;28;41079;-75
2023/12/30 03:35:37;;;;;;;2.33;0.90;;;;;;;;;;5042919;28;40774;-75
2023/12/30 03:38:05;;;;;;;4.40;0.93;;;;;;;;;;5053840;28;41385;-76
2023/12/30 03:40:33;;;;;;;3.15;1.15;;;;;;;;;;5066966;28;42113;-75
2023/12/30 03:43:03;;;;;;;3.13;1.05;;;;;;;;;;5051469;28;41920;-75
2023/12/30 03:45:31;;;;;;;4.47;0.90;;;;;;;;;;5066358;28;41321;-75
2023/12/30 03:48:00;;;;;;;6.18;1.10;;;;;;;;;;5060844;28;41908;-75
2023/12/30 03:50:29;;;;;;;5.53;1.33;;;;;;;;;;5048257;28;40658;-75
2023/12/30 03:52:57;;;;;;;3.03;1.00;;;;;;;;;;5050999;28;39870;-75
2023/12/30 03:55:25;;;;;;;2.05;0.80;;;;;;;;;;5057741;28;40534;-75
2023/12/30 03:57:53;;;;;;;2.97;1.08;;;;;;;;;;5063513;28;41341;-75
2023/12/30 04:00:21;;;;;;;4.50;0.90;;;;;;;;;;5072413;28;41953;-75
2023/12/30 04:02:49;;;;;;;3.65;1.27;;;;;;;;;;5074357;28;41284;-75
2023/12/30 04:05:17;;;;;;;3.78;1.25;;;;;;;;;;5028085;28;40498;-75
2023/12/30 04:07:47;;;;;;;2.35;0.88;;;;;;;;;;5058738;28;42311;-75
2023/12/30 04:10:17;;;;;;;3.83;1.00;;;;;;;;;;5072650;28;41378;-75
2023/12/30 04:12:45;;;;;;;4.32;0.98;;;;;;;;;;5053208;28;41318;-74
2023/12/30 04:15:13;;;;;;;4.75;1.20;;;;;;;;;;5041041;28;40472;-75
2023/12/30 04:17:41;;;;;;;3.67;0.88;;;;;;;;;;5040251;28;40187;-75
2023/12/30 04:20:10;;;;;;;3.13;1.00;;;;;;;;;;5050818;28;40618;-75
2023/12/30 04:22:38;;;;;;;3.30;0.90;;;;;;;;;;5057067;28;40249;-75
2023/12/30 04:25:08;;;;;;;3.25;0.82;;;;;;;;;;5045659;28;40212;-75
2023/12/30 04:27:36;;;;;;;2.55;0.98;;;;;;;;;;5065059;28;41650;-75
2023/12/30 04:30:05;;;;;;;2.92;1.02;;;;;;;;;;5065373;28;41477;-75
2023/12/30 04:32:33;;;;;;;5.30;1.25;;;;;;;;;;5045175;28;41509;-75
2023/12/30 04:35:04;;;;;;;4.28;0.93;;;;;;;;;;5037063;28;40849;-75
2023/12/30 04:37:32;;;;;;;3.67;1.30;;;;;;;;;;5056184;28;40949;-75
2023/12/30 04:40:00;;;;;;;3.28;0.98;;;;;;;;;;5067483;28;43219;-75
2023/12/30 04:42:29;;;;;;;3.17;1.23;;;;;;;;;;5070040;28;42232;-75
2023/12/30 04:44:57;;;;;;;2.75;0.95;;;;;;;;;;5061567;28;40335;-75
2023/12/30 04:47:25;;;;;;;2.15;0.68;;;;;;;;;;5037303;28;41879;-74
2023/12/30 04:49:53;;;;;;;3.30;0.73;;;;;;;;;;5051148;28;39969;-75
2023/12/30 04:52:21;;;;;;;1.75;0.80;;;;;;;;;;5046765;28;40911;-75
2023/12/30 04:54:49;;;;;;;3.40;1.00;;;;;;;;;;5081362;28;43116;-75
2023/12/30 04:57:17;;;;;;;3.25;0.85;;;;;;;;;;5056225;28;40187;-75
2023/12/30 04:59:47;;;;;;;3.67;1.02;;;;;;;;;;5061494;28;40541;-75
2023/12/30 05:02:15;;;;;;;3.70;1.30;;;;;;;;;;5050233;28;41272;-75
2023/12/30 05:04:43;;;;;;;3.88;0.88;;;;;;;;;;5067633;28;41252;-75
2023/12/30 05:07:11;;;;;;;3.20;0.80;;;;;;;;;;5065932;28;42739;-75
2023/12/30 05:09:44;;;;;;;2.10;0.75;;;;;;;;;;5059179;28;42118;-75
2023/12/30 05:12:12;;;;;;;3.38;1.23;;;;;;;;;;5065377;28;41321;-75
2023/12/30 05:14:40;;;;;;;5.13;1.27;;;;;;;;;;5062310;28;42053;-75
2023/12/30 05:17:10;;;;;;;3.72;0.90;;;;;;;;;;5066415;28;41164;-75
2023/12/30 05:19:38;;;;;;;3.20;0.95;;;;;;;;;;5068180;28;41651;-75
2023/12/30 05:22:06;;;;;;;3.65;1.02;;;;;;;;;;5068785;28;41761;-75
2023/12/30 05:24:34;;;;;;;2.97;1.13;;;;;;;;;;5064033;28;40883;-75
2023/12/30 05:27:02;;;;;;;2.95;0.82;;;;;;;;;;5069085;28;42183;-75
2023/12/30 05:29:29;;;;;;;3.42;1.00;;;;;;;;;;5078027;28;41147;-75
2023/12/30 05:31:57;;;;;;;3.20;1.05;;;;;;;;;;5069046;28;41052;-75
2023/12/30 05:34:27;;;;;;;3.35;1.00;;;;;;;;;;5069012;28;42693;-75
2023/12/30 05:36:55;;;;;;;3.90;1.10;;;;;;;;;;5062809;28;42009;-75
2023/12/30 05:39:23;;;;;;;4.43;1.25;;;;;;;;;;5031131;28;40130;-75
2023/12/30 05:41:51;;;;;;;4.22;0.80;;;;;;;;;;5057801;28;42836;-75
2023/12/30 05:44:19;;;;;;;4.55;1.20;;;;;;;;;;5066136;28;41185;-75
2023/12/30 05:46:47;;;;;;;3.72;0.98;;;;;;;;;;5066838;28;42365;-75
2023/12/30 05:49:15;;;;;;;3.10;0.80;;;;;;;;;;5081682;28;41248;-75
2023/12/30 05:51:44;;;;;;;2.63;0.93;;;;;;;;;;5075345;28;41639;-75
2023/12/30 05:54:12;;;;;;;2.53;0.85;;;;;;;;;;5072079;28;41511;-75
2023/12/30 05:56:40;;;;;;;4.07;1.08;;;;;;;;;;5060605;28;41362;-75
2023/12/30 05:59:08;;;;;;;5.38;1.27;;;;;;;;;;5060036;28;41280;-75
2023/12/30 06:01:43;;;;;;;2.35;0.90;;;;;;;;;;5059516;28;42957;-75
2023/12/30 06:04:12;;;;;;;4.60;1.30;;;;;;;;;;5060755;28;41847;-75
2023/12/30 06:06:40;;;;;;;3.40;0.95;;;;;;;;;;5065424;28;43018;-75
2023/12/30 06:09:09;;;;;;;3.15;0.82;;;;;;;;;;5062922;28;41933;-75
2023/12/30 06:11:37;;;;;;;4.13;1.30;;;;;;;;;;5062100;28;41891;-75
2023/12/30 06:14:05;;;;;;;4.30;1.10;;;;;;;;;;5063906;28;41732;-75
2023/12/30 06:16:33;;;;;;;4.53;0.77;;;;;;;;;;5066398;28;41901;-75
2023/12/30 06:19:01;;;;;;;2.72;1.02;;;;;;;;;;5061800;28;41055;-75
2023/12/30 06:21:29;;;;;;;4.85;1.27;;;;;;;;;;5066051;28;42831;-75
2023/12/30 06:23:57;;;;;;;3.10;1.00;;;;;;;;;;5066389;28;41863;-75
2023/12/30 06:26:26;;;;;;;3.97;1.02;;;;;;;;;;5065806;28;41458;-74
2023/12/30 06:28:54;;;;;;;4.47;0.85;;;;;;;;;;5063177;28;42142;-75
2023/12/30 06:31:22;;;;;;;3.97;1.00;;;;;;;;;;5061703;28;41715;-75
2023/12/30 06:33:50;;;;;;;4.75;0.80;;;;;;;;;;5059320;28;41862;-75
2023/12/30 06:36:22;;;;;;;5.68;1.20;;;;;;;;;;5067624;28;41284;-75
2023/12/30 06:38:51;;;;;;;4.20;1.05;;;;;;;;;;5053256;28;41564;-75
2023/12/30 06:41:19;;;;;;;2.13;1.00;;;;;;;;;;5057957;28;43158;-75
2023/12/30 06:43:49;;;;;;;3.72;1.00;;;;;;;;;;5057362;28;41283;-75
2023/12/30 06:46:18;;;;;;;3.17;0.98;;;;;;;;;;5065241;28;41467;-75
2023/12/30 06:48:46;;;;;;;4.97;1.33;;;;;;;;;;5057509;28;41954;-75
2023/12/30 06:51:14;;;;;;;6.22;1.20;;;;;;;;;;5065360;28;42039;-75
2023/12/30 06:53:42;;;;;;;2.92;0.98;;;;;;;;;;5056536;28;41734;-75
2023/12/30 06:56:10;;;;;;;4.90;1.20;;;;;;;;;;5068162;28;39823;-75
2023/12/30 06:58:38;;;;;;;4.93;1.52;;;;;;;;;;5068516;28;42295;-75
2023/12/30 07:01:07;;;;;;;5.13;1.30;;;;;;;;;;5075696;28;41505;-75
2023/12/30 07:03:36;;;;;;;5.80;1.25;;;;;;;;;;5072471;28;42335;-75
2023/12/30 07:06:04;;;;;;;5.00;1.33;;;;;;;;;;5059142;28;42485;-75
2023/12/30 07:08:32;;;;;;;3.50;1.20;;;;;;;;;;5060209;28;41721;-75
2023/12/30 07:10:59;;;;;;;4.97;1.17;;;;;;;;;;5076448;28;41330;-75
2023/12/30 07:13:27;;;;;;;2.55;1.00;;;;;;;;;;5066517;28;42635;-75
2023/12/30 07:15:56;;;;;;;4.78;1.13;;;;;;;;;;5065164;28;41397;-75
2023/12/30 07:18:25;;;;;;;4.88;1.70;;;;;;;;;;5079045;28;42684;-75
2023/12/30 07:20:53;;;;;;;4.28;0.82;;;;;;;;;;5065039;28;41440;-75
2023/12/30 07:23:21;;;;;;;4.53;1.45;;;;;;;;;;5061650;28;40670;-75
2023/12/30 07:25:51;;;;;;;3.90;1.30;;;;;;;;;;5056827;28;42350;-75
2023/12/30 07:28:18;;;;;;;5.68;1.35;;;;;;;;;;5060460;28;40247;-76
2023/12/30 07:30:47;;;;;;;3.13;1.00;;;;;;;;;;5063333;28;40966;-75
2023/12/30 07:33:17;;;;;;;4.45;1.20;;;;;;;;;;5064668;28;41358;-75
2023/12/30 07:35:46;;;;;;;3.83;1.23;;;;;;;;;;5064422;28;41543;-76
2023/12/30 07:38:14;;;;;;;4.28;1.48;;;;;;;;;;5055420;28;40411;-75
2023/12/30 07:40:42;;;;;;;3.38;1.05;;;;;;;;;;5064679;28;41644;-74
2023/12/30 07:43:10;;;;;;;3.10;1.35;;;;;;;;;;5063943;28;40819;-75
2023/12/30 07:45:38;;;;;;;4.45;1.45;;;;;;;;;;5062162;28;40551;-75
2023/12/30 07:48:06;;;;;;;3.72;1.33;;;;;;;;;;5062278;28;41038;-74
2023/12/30 07:50:34;;;;;;;4.75;1.35;;;;;;;;;;5053830;28;42369;-75
2023/12/30 07:53:04;;;;;;;5.38;1.55;;;;;;;;;;5059201;28;41658;-74
2023/12/30 07:55:32;;;;;;;4.10;1.35;;;;;;;;;;5047285;28;43141;-74
2023/12/30 07:58:00;;;;;;;3.63;1.33;;;;;;;;;;5060165;28;41301;-75
2023/12/30 08:00:28;;;;;;;4.10;1.48;;;;;;;;;;5056552;28;43115;-75
2023/12/30 08:02:56;;;;;;;4.07;1.73;;;;;;;;;;5064114;28;41274;-75
2023/12/30 08:05:24;;;;;;;5.22;1.70;;;;;;;;;;5064671;28;42767;-74
2023/12/30 08:07:52;;;;;;;3.70;1.25;;;;;;;;;;5062071;28;42727;-74
2023/12/30 08:10:23;;;;;;;7.70;1.77;;;;;;;;;;5055451;28;42045;-74
2023/12/30 08:12:51;;;;;;;3.95;1.30;;;;;;;;;;5047167;28;41763;-74
2023/12/30 08:15:19;;;;;;;4.00;1.10;;;;;;;;;;5061426;28;41374;-74
2023/12/30 08:17:47;;;;;;;4.15;1.20;;;;;;;;;;5062284;28;41071;-74
2023/12/30 08:20:15;;;;;;;4.80;1.55;;;;;;;;;;5063176;28;41719;-74
2023/12/30 08:22:43;;;;;;;3.47;1.48;;;;;;;;;;5064294;28;41273;-74
2023/12/30 08:25:12;;;;;;;2.90;1.17;;;;;;;;;;5069454;28;41790;-74
2023/12/30 08:27:42;;;;;;;4.13;1.75;;;;;;;;;;5068770;28;42557;-74
2023/12/30 08:30:11;;;;;;;5.97;1.67;;;;;;;;;;5057005;28;41357;-74
2023/12/30 08:32:39;;;;;;;7.05;1.20;;;;;;;;;;5061380;28;43157;-74
2023/12/30 08:35:08;;;;;;;6.20;1.52;;;;;;;;;;5063833;28;43263;-76
2023/12/30 08:37:36;;;;;;;5.32;1.55;;;;;;;;;;5067343;28;41839;-75
2023/12/30 08:40:07;;;;;;;7.55;1.88;;;;;;;;;;5064135;28;41744;-73
2023/12/30 08:42:35;;;;;;;5.75;1.95;;;;;;;;;;5060625;28;33542;-73
2023/12/30 08:45:06;;;;;;;3.78;1.45;;;;;;;;;;5058012;28;41481;-73
2023/12/30 08:47:34;;;;;;;5.13;1.55;;;;;;;;;;5069169;28;42152;-72
2023/12/30 08:50:03;;;;;;;7.20;1.90;;;;;;;;;;5067540;28;41142;-73
2023/12/30 08:52:31;;;;;;;4.70;1.50;;;;;;;;;;5067814;28;42426;-73
2023/12/30 08:55:00;;;;;;;4.70;1.30;;;;;;;;;;5059884;28;42137;-74
2023/12/30 08:57:28;;;;;;;3.78;1.13;;;;;;;;;;5063154;28;41832;-74
2023/12/30 08:59:56;;;;;;;5.95;1.75;;;;;;;;;;5069548;28;41435;-73
2023/12/30 09:02:25;;;;;;;7.80;1.50;;;;;;;;;;5068878;28;41766;-73
2023/12/30 09:04:56;;;;;;;5.05;1.45;;;;;;;;;;5061320;28;42182;-72
2023/12/30 09:07:24;;;;;;;5.65;1.75;;;;;;;;;;5054589;28;42135;-73
2023/12/30 09:09:52;;;;;;;7.38;2.33;;;;;;;;;;5076483;28;41859;-72
2023/12/30 09:12:20;;;;;;;4.90;1.50;;;;;;;;;;5057481;28;41485;-73
2023/12/30 09:14:48;;;;;;;4.63;1.75;;;;;;;;;;5064797;28;41642;-73
2023/12/30 09:17:16;;;;;;;4.15;1.38;;;;;;;;;;5060637;28;40957;-74
2023/12/30 09:19:45;;;;;;;6.93;1.85;;;;;;;;;;5063771;28;42071;-74
2023/12/30 09:22:14;;;;;;;8.57;2.03;;;;;;;;;;5076321;28;42674;-73
2023/12/30 09:24:43;;;;;;;6.60;1.55;;;;;;;;;;5069024;28;40863;-73
2023/12/30 09:27:11;;;;;;;6.63;1.83;;;;;;;;;;5066894;28;42119;-72
2023/12/30 09:29:39;;;;;;;6.43;1.95;;;;;;;;;;5065596;28;41394;-72
2023/12/30 09:32:07;;;;;;;7.55;1.77;;;;;;;;;;5067724;28;42690;-73
2023/12/30 09:34:35;;;;;;;6.47;1.77;;;;;;;;;;5068481;28;41910;-73
2023/12/30 09:37:14;;;;;;;4.45;1.45;;;;;;;;;;5065181;28;42021;-73
2023/12/30 09:39:43;;;;;;;4.47;1.60;;;;;;;;;;5068019;28;41920;-76
2023/12/30 09:42:11;;;;;;;4.18;1.40;;;;;;;;;;5069320;28;41703;-73
2023/12/30 09:44:39;;;;;;;10.20;1.90;;;;;;;;;;5063119;28;42409;-72
2023/12/30 09:47:10;;;;;;;3.92;1.42;;;;;;;;;;5067640;28;41445;-71
2023/12/30 09:49:38;;;;;;;7.43;2.08;;;;;;;;;;5052467;28;41837;-72
2023/12/30 09:52:07;;;;;;;5.00;1.38;;;;;;;;;;5067284;28;41423;-72
2023/12/30 09:54:37;;;;;;;4.65;1.38;;;;;;;;;;5067472;28;43192;-72
2023/12/30 09:57:16;;;;;;;6.82;1.40;;;;;;;;;;5054711;28;41441;-72
2023/12/30 09:59:44;;;;;;;7.22;1.65;;;;;;;;;;5052917;28;41648;-72
2023/12/30 10:02:12;;;;;;;6.70;1.90;;;;;;;;;;5051963;28;41612;-72
2023/12/30 10:04:40;;;;;;;7.55;1.88;;;;;;;;;;5063562;28;42012;-72
2023/12/30 10:07:10;;;;;;;5.55;1.80;;;;;;;;;;5038894;28;40133;-72
2023/12/30 10:09:39;;;;;;;10.13;1.58;;;;;;;;;;5049738;28;41895;-72
2023/12/30 10:12:09;;;;;;;5.40;1.55;;;;;;;;;;5056767;28;41239;-72
2023/12/30 10:14:36;;;;;;;9.48;2.03;;;;;;;;;;5058269;28;43008;-72
2023/12/30 10:17:04;;;;;;;8.30;2.13;;;;;;;;;;5061145;28;41274;-72
2023/12/30 10:19:32;;;;;;;11.45;1.70;;;;;;;;;;5067258;28;41729;-72
2023/12/30 10:22:00;;;;;;;9.75;1.80;;;;;;;;;;5057083;28;41945;-71
2023/12/30 10:24:28;;;;;;;8.75;2.28;;;;;;;;;;5068026;28;41368;-71
2023/12/30 10:27:03;;;;;;;10.05;1.27;;;;;;;;;;5061167;28;42294;-72
2023/12/30 10:29:31;;;;;;;4.25;1.70;;;;;;;;;;5067517;28;42662;-73
2023/12/30 10:32:13;;;;;;;5.60;1.65;;;;;;;;;;5053589;28;42075;-76
2023/12/30 10:34:42;;;;;;;4.72;1.52;;;;;;;;;;5074123;28;43694;-72
2023/12/30 10:37:10;;;;;;;5.90;1.52;;;;;;;;;;5064612;28;42632;-71
2023/12/30 10:39:38;;;;;;;8.40;1.80;;;;;;;;;;5052395;28;41827;-73
2023/12/30 10:42:08;;;;;;;5.75;1.13;;;;;;;;;;5063603;28;41959;-74
2023/12/30 10:44:35;;;;;;;5.90;1.92;;;;;;;;;;5066492;28;42276;-74
2023/12/30 10:47:04;;;;;;;5.60;1.50;;;;;;;;;;5064602;28;41424;-72
2023/12/30 10:49:32;;;;;;;9.82;1.90;;;;;;;;;;5063853;28;43150;-72
2023/12/30 10:52:00;;;;;;;8.38;2.13;;;;;;;;;;5060201;28;41961;-72
2023/12/30 10:54:33;;;;;;;4.60;1.40;;;;;;;;;;5063921;28;41765;-72
2023/12/30 10:57:10;;;;;;;5.63;1.65;;;;;;;;;;5137260;27;20395;-72
2023/12/30 10:59:38;;;;;;;5.10;1.42;;;;;;;;;;5137359;27;43178;-72
2023/12/30 11:02:06;;;;;;;3.65;1.40;;;;;;;;;;5103875;27;38739;-72
2023/12/30 11:04:34;;;;;;;6.13;1.67;;;;;;;;;;5132063;27;41445;-75
2023/12/30 11:07:04;;;;;;;6.80;1.85;;;;;;;;;;5121603;27;42122;-76
2023/12/30 11:09:33;;;;;;;4.50;1.38;;;;;;;;;;5106018;27;39719;-75
2023/12/30 11:12:01;;;;;;;7.50;1.42;;;;;;;;;;5119146;27;41229;-74
2023/12/30 11:14:33;;;;;;;3.85;1.23;;;;;;;;;;5124726;27;42378;-74
2023/12/30 11:17:01;;;;;;;2.72;0.98;;;;;;;;;;5130214;27;40110;-72
2023/12/30 11:19:29;;;;;;;3.63;1.30;;;;;;;;;;5120268;27;42523;-75
2023/12/30 11:21:58;;;;;;;3.60;1.20;;;;;;;;;;5123081;27;39785;-73
2023/12/30 11:24:27;;;;;;;3.35;1.30;;;;;;;;;;5126870;27;41266;-72
2023/12/30 11:26:55;;;;;;;5.15;1.70;;;;;;;;;;5134422;27;41599;-74
2023/12/30 11:29:25;;;;;;;3.35;1.20;;;;;;;;;;5129556;27;40102;-75
2023/12/30 11:31:55;;;;;;;5.85;1.52;;;;;;;;;;5125408;27;41379;-73
2023/12/30 11:34:24;;;;;;;6.60;1.63;;;;;;;;;;5123212;27;41526;-73
2023/12/30 11:36:53;;;;;;;5.93;1.35;;;;;;;;;;5121346;27;40035;-71
2023/12/30 11:39:23;;;;;;;5.28;1.50;;;;;;;;;;5103437;27;39662;-75
2023/12/30 11:41:53;;;;;;;7.13;2.10;;;;;;;;;;5121083;27;40582;-74
2023/12/30 11:44:21;;;;;;;4.78;1.58;;;;;;;;;;5123575;27;41021;-76
2023/12/30 11:46:48;;;;;;;3.40;1.35;;;;;;;;;;5119210;27;42028;-73
2023/12/30 11:49:22;;;;;;;7.38;1.88;;;;;;;;;;5125349;27;40028;-71
2023/12/30 11:51:50;;;;;;;6.43;1.88;;;;;;;;;;5129026;27;42203;-72
2023/12/30 11:54:18;;;;;;;6.20;1.63;;;;;;;;;;5120934;27;41930;-72
2023/12/30 11:56:46;;;;;;;4.75;1.25;;;;;;;;;;5119218;27;40086;-72
2023/12/30 11:59:14;;;;;;;5.00;1.67;;;;;;;;;;5123595;27;41559;-73
2023/12/30 12:01:43;;;;;;;5.30;2.10;;;;;;;;;;5115722;27;43092;-72
2023/12/30 12:04:14;;;;;;;7.63;1.45;;;;;;;;;;5117219;27;41555;-73
2023/12/30 12:06:44;;;;;;;8.60;1.90;;;;;;;;;;5115661;27;41686;-72
2023/12/30 12:09:12;;;;;;;10.63;1.55;;;;;;;;;;5107924;27;40356;-71
2023/12/30 12:11:40;;;;;;;7.00;1.50;;;;;;;;;;5108656;27;41302;-71
2023/12/30 12:14:10;;;;;;;7.30;1.95;;;;;;;;;;5110101;27;42069;-71
2023/12/30 12:16:38;;;;;;;5.57;1.75;;;;;;;;;;5103400;27;40122;-70
2023/12/30 12:19:06;;;;;;;3.53;1.40;;;;;;;;;;5091587;27;40160;-70
2023/12/30 12:21:36;;;;;;;6.80;1.52;;;;;;;;;;5121202;27;42090;-71
2023/12/30 12:24:05;;;;;;;6.18;1.75;;;;;;;;;;5109675;27;40977;-70
2023/12/30 12:26:33;;;;;;;6.35;1.30;;;;;;;;;;5116492;27;41774;-70
2023/12/30 12:29:01;;;;;;;4.45;1.60;;;;;;;;;;5108684;27;39878;-73
2023/12/30 12:31:30;;;;;;;7.05;1.60;;;;;;;;;;5108249;27;42234;-72
2023/12/30 12:33:58;;;;;;;5.78;2.03;;;;;;;;;;5116775;27;42013;-71
2023/12/30 12:36:26;;;;;;;8.52;2.05;;;;;;;;;;5105999;27;40916;-71
2023/12/30 12:38:54;;;;;;;6.03;1.73;;;;;;;;;;5120806;27;41210;-72
2023/12/30 12:41:24;;;;;;;7.70;2.42;;;;;;;;;;5106829;27;41576;-72
2023/12/30 12:43:52;;;;;;;5.32;2.13;;;;;;;;;;5100361;27;39887;-72
2023/12/30 12:46:20;;;;;;;6.13;2.00;;;;;;;;;;5109082;27;40948;-71
2023/12/30 12:48:48;;;;;;;8.27;1.90;;;;;;;;;;5089582;27;39153;-71
2023/12/30 12:51:16;;;;;;;11.90;2.33;;;;;;;;;;5107133;27;42228;-71
2023/12/30 12:53:44;;;;;;;8.43;2.38;;;;;;;;;;5107308;27;41728;-72
2023/12/30 12:56:12;;;;;;;8.30;2.28;;;;;;;;;;5108669;27;40392;-70
2023/12/30 12:58:42;;;;;;;7.10;2.60;;;;;;;;;;5107817;27;41395;-71
2023/12/30 13:01:10;;;;;;;10.43;2.15;;;;;;;;;;5120841;27;41812;-71
2023/12/30 13:03:38;;;;;;;4.22;1.77;;;;;;;;;;5104639;27;40051;-70
2023/12/30 13:06:12;;;;;;;8.30;1.92;;;;;;;;;;5098819;28;41392;-71
2023/12/30 13:08:41;;;;;;;5.85;2.20;;;;;;;;;;5104656;27;32818;-71
2023/12/30 13:11:09;;;;;;;8.15;1.75;;;;;;;;;;5107943;27;41515;-71
2023/12/30 13:13:37;;;;;;;8.77;2.20;;;;;;;;;;5102569;27;41382;-71
2023/12/30 13:16:07;;;;;;;19.08;3.45;;;;;;;;;;5108160;27;40993;-71
2023/12/30 13:18:35;;;;;;;9.50;2.60;;;;;;;;;;5099562;27;40841;-71
2023/12/30 13:21:06;;;;;;;9.73;2.13;;;;;;;;;;5107469;27;43339;-71
2023/12/30 13:23:34;;;;;;;10.13;2.60;;;;;;;;;;5098026;27;39831;-73
2023/12/30 13:26:02;;;;;;;11.05;2.75;;;;;;;;;;5097690;27;42420;-71
2023/12/30 13:28:31;;;;;;;12.07;3.10;;;;;;;;;;5098207;27;41680;-69
2023/12/30 13:30:59;;;;;;;11.07;3.00;;;;;;;;;;5103508;27;40572;-69
2023/12/30 13:33:29;;;;;;;10.70;2.55;;;;;;;;;;5100453;27;43062;-70
2023/12/30 13:35:57;;;;;;;13.95;2.33;;;;;;;;;;5106771;27;40065;-70
2023/12/30 13:38:27;;;;;;;22.50;2.75;;;;;;;;;;5097729;27;41849;-71
2023/12/30 13:41:00;;;;;;;15.25;3.03;;;;;;;;;;5105373;27;41686;-72
2023/12/30 13:43:28;;;;;;;14.43;2.25;;;;;;;;;;5104640;28;39730;-72
2023/12/30 13:46:11;;;;;;;9.98;2.50;;;;;;;;;;5089175;27;39713;-71
2023/12/30 13:49:31;;;;;;;18.20;3.03;;;;;;;;;;5104543;28;42032;-71
2023/12/30 13:51:42;;;;;;;8.70;2.33;;;;;;;;;;5113187;27;39530;-70
2023/12/30 13:54:10;;;;;;;5.68;2.22;;;;;;;;;;5115390;27;42060;-70
2023/12/30 13:56:43;;;;;;;10.15;2.88;;;;;;;;;;5113824;27;40312;-71
2023/12/30 13:59:12;;;;;;;9.82;2.20;;;;;;;;;;5105580;27;41215;-72
2023/12/30 14:01:40;;;;;;;12.27;3.28;;;;;;;;;;5103197;27;41728;-71
2023/12/30 14:04:11;;;;;;;10.85;2.88;;;;;;;;;;5105195;27;40520;-71
2023/12/30 14:06:40;;;;;;;15.00;2.60;;;;;;;;;;5108153;27;41715;-71
2023/12/30 14:09:22;;;;;;;9.02;2.67;;;;;;;;;;5107114;27;42688;-72
2023/12/30 14:11:55;;;;;;;9.45;2.92;;;;;;;;;;5104203;27;41320;-71
2023/12/30 14:14:23;;;;;;;16.60;2.88;;;;;;;;;;5089571;27;41692;-72
2023/12/30 14:16:50;;;;;;;8.70;2.90;;;;;;;;;;5094184;27;41493;-72
2023/12/30 14:19:20;;;;;;;10.15;3.22;;;;;;;;;;5121091;27;41650;-70
2023/12/30 14:21:48;;;;;;;5.97;2.45;;;;;;;;;;5118766;27;41987;-72
2023/12/30 14:24:18;;;;;;;9.13;2.90;;;;;;;;;;5102822;27;40834;-72
2023/12/30 14:26:46;;;;;;;12.00;2.88;;;;;;;;;;5103947;27;41648;-72
2023/12/30 14:29:14;;;;;;;9.23;2.80;;;;;;;;;;5088374;27;41699;-73
2023/12/30 14:31:42;;;;;;;9.52;2.72;;;;;;;;;;5115968;27;40217;-71
2023/12/30 14:34:10;;;;;;;8.50;3.25;;;;;;;;;;5107721;27;42067;-71
2023/12/30 14:36:40;;;;;;;8.07;3.08;;;;;;;;;;5096881;27;42101;-71
2023/12/30 14:39:08;;;;;;;7.70;2.30;;;;;;;;;;5105554;27;41829;-70
2023/12/30 14:41:39;;;;;;;8.50;2.33;;;;;;;;;;5108328;27;42327;-69
2023/12/30 14:44:08;;;;;;;8.82;2.63;;;;;;;;;;5107741;27;40589;-70
2023/12/30 14:46:36;;;;;;;13.13;2.85;;;;;;;;;;5101680;27;42200;-71
2023/12/30 14:49:04;;;;;;;10.48;3.08;;;;;;;;;;5099941;27;42211;-71
2023/12/30 14:51:32;;;;;;;12.60;2.67;;;;;;;;;;5092941;27;40849;-71